sensor_id;sensor_type;location;lat;lon;timestamp;P1;durP1;ratioP1;P2;durP2;ratioP2
18931;SDS011;9598;50.954;3.112;2023-05-07T00:04:47;11.85;;;7.07;;
18931;SDS011;9598;50.954;3.112;2023-05-07T00:09:51;11.00;;;6.95;;
18931;SDS011;9598;50.954;3.112;2023-05-07T00:14:54;9.90;;;6.63;;
18931;SDS011;9598;50.954;3.112;2023-05-07T00:19:56;12.35;;;6.70;;
18931;SDS011;9598;50.954;3.112;2023-05-07T00:24:59;9.57;;;6.65;;
18931;SDS011;9598;50.954;3.112;2023-05-07T00:30:01;12.25;;;7.70;;
18931;SDS011;9598;50.954;3.112;2023-05-07T00:35:04;10.88;;;7.18;;
18931;SDS011;9598;50.954;3.112;2023-05-07T00:40:08;10.23;;;6.68;;
18931;SDS011;9598;50.954;3.112;2023-05-07T00:45:11;10.82;;;6.65;;
18931;SDS011;9598;50.954;3.112;2023-05-07T00:50:13;9.88;;;6.63;;
18931;SDS011;9598;50.954;3.112;2023-05-07T00:55:17;10.27;;;7.22;;
18931;SDS011;9598;50.954;3.112;2023-05-07T01:00:20;8.55;;;6.95;;
18931;SDS011;9598;50.954;3.112;2023-05-07T01:05:22;9.88;;;7.15;;
18931;SDS011;9598;50.954;3.112;2023-05-07T01:10:26;10.02;;;7.20;;
18931;SDS011;9598;50.954;3.112;2023-05-07T01:15:31;10.88;;;7.50;;
18931;SDS011;9598;50.954;3.112;2023-05-07T01:20:33;9.93;;;6.50;;
18931;SDS011;9598;50.954;3.112;2023-05-07T01:25:37;10.43;;;6.97;;
18931;SDS011;9598;50.954;3.112;2023-05-07T01:30:40;12.82;;;7.40;;
18931;SDS011;9598;50.954;3.112;2023-05-07T01:35:46;10.85;;;7.57;;
18931;SDS011;9598;50.954;3.112;2023-05-07T01:40:52;11.00;;;7.15;;
18931;SDS011;9598;50.954;3.112;2023-05-07T01:45:55;10.68;;;7.38;;
18931;SDS011;9598;50.954;3.112;2023-05-07T01:50:58;11.80;;;7.72;;
18931;SDS011;9598;50.954;3.112;2023-05-07T01:56:03;12.32;;;8.25;;
18931;SDS011;9598;50.954;3.112;2023-05-07T02:01:07;12.85;;;7.28;;
18931;SDS011;9598;50.954;3.112;2023-05-07T02:06:09;10.68;;;7.50;;
18931;SDS011;9598;50.954;3.112;2023-05-07T02:11:14;7.32;;;6.50;;
18931;SDS011;9598;50.954;3.112;2023-05-07T02:16:17;12.10;;;7.65;;
18931;SDS011;9598;50.954;3.112;2023-05-07T02:21:20;10.82;;;7.07;;
18931;SDS011;9598;50.954;3.112;2023-05-07T02:26:24;10.85;;;7.50;;
18931;SDS011;9598;50.954;3.112;2023-05-07T02:31:27;9.77;;;7.93;;
18931;SDS011;9598;50.954;3.112;2023-05-07T02:36:29;9.65;;;7.93;;
18931;SDS011;9598;50.954;3.112;2023-05-07T02:41:39;11.43;;;7.18;;
18931;SDS011;9598;50.954;3.112;2023-05-07T02:46:41;9.38;;;7.18;;
18931;SDS011;9598;50.954;3.112;2023-05-07T02:51:47;10.18;;;7.47;;
18931;SDS011;9598;50.954;3.112;2023-05-07T02:56:55;11.32;;;7.40;;
18931;SDS011;9598;50.954;3.112;2023-05-07T03:01:58;13.32;;;8.50;;
18931;SDS011;9598;50.954;3.112;2023-05-07T03:07:00;9.35;;;7.28;;
18931;SDS011;9598;50.954;3.112;2023-05-07T03:12:03;11.18;;;7.03;;
18931;SDS011;9598;50.954;3.112;2023-05-07T03:17:06;12.00;;;7.75;;
18931;SDS011;9598;50.954;3.112;2023-05-07T03:22:08;11.00;;;7.97;;
18931;SDS011;9598;50.954;3.112;2023-05-07T03:27:11;8.98;;;7.93;;
18931;SDS011;9598;50.954;3.112;2023-05-07T03:32:14;16.20;;;8.88;;
18931;SDS011;9598;50.954;3.112;2023-05-07T03:37:16;14.85;;;9.35;;
18931;SDS011;9598;50.954;3.112;2023-05-07T03:42:20;10.40;;;9.02;;
18931;SDS011;9598;50.954;3.112;2023-05-07T03:47:25;10.68;;;8.95;;
18931;SDS011;9598;50.954;3.112;2023-05-07T03:52:27;13.40;;;9.10;;
18931;SDS011;9598;50.954;3.112;2023-05-07T03:57:35;15.50;;;9.43;;
18931;SDS011;9598;50.954;3.112;2023-05-07T04:02:38;12.13;;;9.50;;
18931;SDS011;9598;50.954;3.112;2023-05-07T04:07:41;11.70;;;9.52;;
18931;SDS011;9598;50.954;3.112;2023-05-07T04:12:46;12.82;;;9.93;;
18931;SDS011;9598;50.954;3.112;2023-05-07T04:17:53;13.82;;;10.13;;
18931;SDS011;9598;50.954;3.112;2023-05-07T04:22:57;13.20;;;9.65;;
18931;SDS011;9598;50.954;3.112;2023-05-07T04:28:01;12.63;;;9.60;;
18931;SDS011;9598;50.954;3.112;2023-05-07T04:33:04;10.82;;;9.52;;
18931;SDS011;9598;50.954;3.112;2023-05-07T04:38:08;11.25;;;9.40;;
18931;SDS011;9598;50.954;3.112;2023-05-07T04:43:12;13.00;;;8.98;;
18931;SDS011;9598;50.954;3.112;2023-05-07T04:48:19;11.18;;;9.50;;
18931;SDS011;9598;50.954;3.112;2023-05-07T04:53:24;12.57;;;11.10;;
18931;SDS011;9598;50.954;3.112;2023-05-07T04:58:29;12.63;;;10.73;;
18931;SDS011;9598;50.954;3.112;2023-05-07T05:03:32;13.73;;;11.35;;
18931;SDS011;9598;50.954;3.112;2023-05-07T05:08:34;12.52;;;11.18;;
18931;SDS011;9598;50.954;3.112;2023-05-07T05:13:39;14.00;;;10.63;;
18931;SDS011;9598;50.954;3.112;2023-05-07T05:18:49;17.10;;;12.52;;
18931;SDS011;9598;50.954;3.112;2023-05-07T05:23:53;13.82;;;12.23;;
18931;SDS011;9598;50.954;3.112;2023-05-07T05:28:59;13.10;;;11.48;;
18931;SDS011;9598;50.954;3.112;2023-05-07T05:34:03;14.50;;;11.77;;
18931;SDS011;9598;50.954;3.112;2023-05-07T05:39:06;14.80;;;12.23;;
18931;SDS011;9598;50.954;3.112;2023-05-07T05:44:10;19.92;;;13.50;;
18931;SDS011;9598;50.954;3.112;2023-05-07T05:49:13;16.05;;;12.57;;
18931;SDS011;9598;50.954;3.112;2023-05-07T05:54:16;15.45;;;12.02;;
18931;SDS011;9598;50.954;3.112;2023-05-07T05:59:20;16.40;;;11.77;;
18931;SDS011;9598;50.954;3.112;2023-05-07T06:04:22;13.88;;;12.15;;
18931;SDS011;9598;50.954;3.112;2023-05-07T06:09:24;16.30;;;12.25;;
18931;SDS011;9598;50.954;3.112;2023-05-07T06:14:28;16.35;;;11.48;;
18931;SDS011;9598;50.954;3.112;2023-05-07T06:19:30;17.00;;;12.05;;
18931;SDS011;9598;50.954;3.112;2023-05-07T06:24:34;16.80;;;12.32;;
18931;SDS011;9598;50.954;3.112;2023-05-07T06:29:38;17.00;;;13.15;;
18931;SDS011;9598;50.954;3.112;2023-05-07T06:34:47;17.58;;;13.48;;
18931;SDS011;9598;50.954;3.112;2023-05-07T06:39:49;15.65;;;11.88;;
18931;SDS011;9598;50.954;3.112;2023-05-07T06:44:53;14.88;;;12.68;;
18931;SDS011;9598;50.954;3.112;2023-05-07T06:49:55;16.13;;;13.32;;
18931;SDS011;9598;50.954;3.112;2023-05-07T06:55:01;16.20;;;12.40;;
18931;SDS011;9598;50.954;3.112;2023-05-07T07:00:05;16.80;;;11.10;;
18931;SDS011;9598;50.954;3.112;2023-05-07T07:05:18;13.60;;;11.65;;
18931;SDS011;9598;50.954;3.112;2023-05-07T07:10:20;13.20;;;10.60;;
18931;SDS011;9598;50.954;3.112;2023-05-07T07:15:26;12.98;;;10.07;;
18931;SDS011;9598;50.954;3.112;2023-05-07T07:20:29;15.45;;;10.82;;
18931;SDS011;9598;50.954;3.112;2023-05-07T07:25:32;13.73;;;10.57;;
18931;SDS011;9598;50.954;3.112;2023-05-07T07:30:36;12.10;;;10.35;;
18931;SDS011;9598;50.954;3.112;2023-05-07T07:35:38;14.25;;;11.52;;
18931;SDS011;9598;50.954;3.112;2023-05-07T07:40:41;12.70;;;10.55;;
18931;SDS011;9598;50.954;3.112;2023-05-07T07:45:45;12.80;;;11.38;;
18931;SDS011;9598;50.954;3.112;2023-05-07T07:50:48;13.68;;;11.80;;
18931;SDS011;9598;50.954;3.112;2023-05-07T07:55:52;14.57;;;11.60;;
18931;SDS011;9598;50.954;3.112;2023-05-07T08:00:59;13.48;;;10.55;;
18931;SDS011;9598;50.954;3.112;2023-05-07T08:06:01;12.65;;;11.30;;
18931;SDS011;9598;50.954;3.112;2023-05-07T08:11:05;11.52;;;10.27;;
18931;SDS011;9598;50.954;3.112;2023-05-07T08:16:11;13.50;;;10.55;;
18931;SDS011;9598;50.954;3.112;2023-05-07T08:21:14;12.70;;;10.57;;
18931;SDS011;9598;50.954;3.112;2023-05-07T08:26:16;14.55;;;10.75;;
18931;SDS011;9598;50.954;3.112;2023-05-07T08:31:20;11.70;;;9.45;;
18931;SDS011;9598;50.954;3.112;2023-05-07T08:36:22;10.90;;;7.53;;
18931;SDS011;9598;50.954;3.112;2023-05-07T08:41:25;10.60;;;6.95;;
18931;SDS011;9598;50.954;3.112;2023-05-07T08:46:29;9.63;;;7.53;;
18931;SDS011;9598;50.954;3.112;2023-05-07T08:51:33;9.25;;;8.30;;
18931;SDS011;9598;50.954;3.112;2023-05-07T08:56:36;10.27;;;8.98;;
18931;SDS011;9598;50.954;3.112;2023-05-07T09:01:41;11.10;;;9.82;;
18931;SDS011;9598;50.954;3.112;2023-05-07T09:06:43;15.32;;;10.88;;
18931;SDS011;9598;50.954;3.112;2023-05-07T09:11:48;13.02;;;10.48;;
18931;SDS011;9598;50.954;3.112;2023-05-07T09:17:01;13.55;;;9.57;;
18931;SDS011;9598;50.954;3.112;2023-05-07T09:22:04;11.55;;;8.98;;
18931;SDS011;9598;50.954;3.112;2023-05-07T09:27:17;10.55;;;8.00;;
18931;SDS011;9598;50.954;3.112;2023-05-07T09:32:21;10.48;;;8.20;;
18931;SDS011;9598;50.954;3.112;2023-05-07T09:37:23;11.02;;;9.30;;
18931;SDS011;9598;50.954;3.112;2023-05-07T09:42:28;11.77;;;9.30;;
18931;SDS011;9598;50.954;3.112;2023-05-07T09:47:36;10.68;;;8.88;;
18931;SDS011;9598;50.954;3.112;2023-05-07T09:52:45;11.73;;;9.02;;
18931;SDS011;9598;50.954;3.112;2023-05-07T09:57:48;11.35;;;8.55;;
18931;SDS011;9598;50.954;3.112;2023-05-07T10:02:54;11.57;;;8.90;;
18931;SDS011;9598;50.954;3.112;2023-05-07T10:08:07;10.48;;;9.35;;
18931;SDS011;9598;50.954;3.112;2023-05-07T10:13:12;10.77;;;8.35;;
18931;SDS011;9598;50.954;3.112;2023-05-07T10:18:21;8.75;;;7.15;;
18931;SDS011;9598;50.954;3.112;2023-05-07T10:23:30;11.18;;;7.28;;
18931;SDS011;9598;50.954;3.112;2023-05-07T10:28:41;10.52;;;8.02;;
18931;SDS011;9598;50.954;3.112;2023-05-07T10:33:49;7.82;;;4.93;;
18931;SDS011;9598;50.954;3.112;2023-05-07T10:38:56;4.93;;;3.72;;
18931;SDS011;9598;50.954;3.112;2023-05-07T10:43:59;3.72;;;3.25;;
18931;SDS011;9598;50.954;3.112;2023-05-07T10:49:10;6.53;;;4.43;;
18931;SDS011;9598;50.954;3.112;2023-05-07T10:54:36;6.30;;;3.80;;
18931;SDS011;9598;50.954;3.112;2023-05-07T10:59:43;4.80;;;3.70;;
18931;SDS011;9598;50.954;3.112;2023-05-07T11:10:47;6.47;;;4.97;;
18931;SDS011;9598;50.954;3.112;2023-05-07T11:16:17;4.82;;;3.60;;
18931;SDS011;9598;50.954;3.112;2023-05-07T11:21:33;4.10;;;3.42;;
18931;SDS011;9598;50.954;3.112;2023-05-07T11:26:49;11.75;;;10.52;;
18931;SDS011;9598;50.954;3.112;2023-05-07T11:31:54;11.18;;;9.88;;
18931;SDS011;9598;50.954;3.112;2023-05-07T11:37:03;9.30;;;8.23;;
18931;SDS011;9598;50.954;3.112;2023-05-07T11:42:25;8.73;;;7.72;;
18931;SDS011;9598;50.954;3.112;2023-05-07T11:47:29;7.43;;;6.70;;
18931;SDS011;9598;50.954;3.112;2023-05-07T11:52:33;6.60;;;5.85;;
18931;SDS011;9598;50.954;3.112;2023-05-07T11:57:36;7.32;;;4.97;;
18931;SDS011;9598;50.954;3.112;2023-05-07T12:02:38;5.10;;;3.72;;
18931;SDS011;9598;50.954;3.112;2023-05-07T12:07:41;5.53;;;4.22;;
18931;SDS011;9598;50.954;3.112;2023-05-07T12:12:45;3.88;;;3.25;;
18931;SDS011;9598;50.954;3.112;2023-05-07T12:17:47;3.10;;;2.80;;
18931;SDS011;9598;50.954;3.112;2023-05-07T12:22:52;4.00;;;2.85;;
18931;SDS011;9598;50.954;3.112;2023-05-07T12:27:55;6.00;;;3.47;;
18931;SDS011;9598;50.954;3.112;2023-05-07T12:32:59;5.18;;;3.80;;
18931;SDS011;9598;50.954;3.112;2023-05-07T12:38:02;6.68;;;5.97;;
18931;SDS011;9598;50.954;3.112;2023-05-07T12:48:17;6.60;;;6.00;;
18931;SDS011;9598;50.954;3.112;2023-05-07T12:53:23;7.38;;;6.68;;
18931;SDS011;9598;50.954;3.112;2023-05-07T12:58:26;8.63;;;6.90;;
18931;SDS011;9598;50.954;3.112;2023-05-07T13:03:30;7.93;;;7.13;;
18931;SDS011;9598;50.954;3.112;2023-05-07T13:08:35;8.80;;;6.75;;
18931;SDS011;9598;50.954;3.112;2023-05-07T13:13:40;6.57;;;5.20;;
18931;SDS011;9598;50.954;3.112;2023-05-07T13:18:44;5.93;;;5.35;;
18931;SDS011;9598;50.954;3.112;2023-05-07T13:23:52;7.85;;;6.43;;
18931;SDS011;9598;50.954;3.112;2023-05-07T13:28:54;7.63;;;5.63;;
18931;SDS011;9598;50.954;3.112;2023-05-07T13:33:56;7.93;;;5.78;;
18931;SDS011;9598;50.954;3.112;2023-05-07T13:38:59;6.20;;;5.63;;
18931;SDS011;9598;50.954;3.112;2023-05-07T13:44:01;6.47;;;5.85;;
18931;SDS011;9598;50.954;3.112;2023-05-07T13:49:04;7.45;;;6.75;;
18931;SDS011;9598;50.954;3.112;2023-05-07T13:54:07;8.20;;;6.75;;
18931;SDS011;9598;50.954;3.112;2023-05-07T13:59:10;7.63;;;6.88;;
18931;SDS011;9598;50.954;3.112;2023-05-07T14:04:14;8.38;;;7.57;;
18931;SDS011;9598;50.954;3.112;2023-05-07T14:09:18;7.85;;;7.05;;
18931;SDS011;9598;50.954;3.112;2023-05-07T14:14:21;8.98;;;8.07;;
18931;SDS011;9598;50.954;3.112;2023-05-07T14:19:23;14.00;;;8.40;;
18931;SDS011;9598;50.954;3.112;2023-05-07T14:24:26;9.25;;;8.10;;
18931;SDS011;9598;50.954;3.112;2023-05-07T14:29:28;8.55;;;7.78;;
18931;SDS011;9598;50.954;3.112;2023-05-07T14:34:30;6.78;;;6.15;;
18931;SDS011;9598;50.954;3.112;2023-05-07T14:39:34;8.43;;;5.90;;
18931;SDS011;9598;50.954;3.112;2023-05-07T14:44:36;6.10;;;5.50;;
18931;SDS011;9598;50.954;3.112;2023-05-07T14:49:40;8.18;;;6.10;;
18931;SDS011;9598;50.954;3.112;2023-05-07T14:54:44;5.32;;;4.82;;
18931;SDS011;9598;50.954;3.112;2023-05-07T14:59:46;5.55;;;5.05;;
18931;SDS011;9598;50.954;3.112;2023-05-07T15:04:48;5.00;;;3.90;;
18931;SDS011;9598;50.954;3.112;2023-05-07T15:09:52;4.03;;;3.58;;
18931;SDS011;9598;50.954;3.112;2023-05-07T15:14:54;3.50;;;3.20;;
18931;SDS011;9598;50.954;3.112;2023-05-07T15:19:56;4.68;;;3.05;;
18931;SDS011;9598;50.954;3.112;2023-05-07T15:24:59;3.90;;;3.42;;
18931;SDS011;9598;50.954;3.112;2023-05-07T15:30:02;4.45;;;3.25;;
18931;SDS011;9598;50.954;3.112;2023-05-07T15:35:06;5.03;;;3.25;;
18931;SDS011;9598;50.954;3.112;2023-05-07T15:40:11;4.88;;;3.80;;
18931;SDS011;9598;50.954;3.112;2023-05-07T15:45:14;6.07;;;3.90;;
18931;SDS011;9598;50.954;3.112;2023-05-07T15:50:16;4.97;;;4.20;;
18931;SDS011;9598;50.954;3.112;2023-05-07T15:55:20;6.25;;;4.22;;
18931;SDS011;9598;50.954;3.112;2023-05-07T16:00:22;5.80;;;5.07;;
18931;SDS011;9598;50.954;3.112;2023-05-07T16:05:27;6.53;;;5.38;;
18931;SDS011;9598;50.954;3.112;2023-05-07T16:10:32;7.88;;;5.70;;
18931;SDS011;9598;50.954;3.112;2023-05-07T16:15:34;7.35;;;6.32;;
18931;SDS011;9598;50.954;3.112;2023-05-07T16:20:36;7.70;;;6.97;;
18931;SDS011;9598;50.954;3.112;2023-05-07T16:25:40;8.15;;;7.35;;
18931;SDS011;9598;50.954;3.112;2023-05-07T16:30:42;12.45;;;11.25;;
18931;SDS011;9598;50.954;3.112;2023-05-07T16:35:49;19.58;;;17.58;;
18931;SDS011;9598;50.954;3.112;2023-05-07T16:40:53;20.40;;;18.40;;
18931;SDS011;9598;50.954;3.112;2023-05-07T16:45:55;19.30;;;17.50;;
18931;SDS011;9598;50.954;3.112;2023-05-07T16:50:57;19.70;;;17.77;;
18931;SDS011;9598;50.954;3.112;2023-05-07T16:56:04;19.75;;;17.83;;
18931;SDS011;9598;50.954;3.112;2023-05-07T17:01:07;20.40;;;18.50;;
18931;SDS011;9598;50.954;3.112;2023-05-07T17:06:10;20.95;;;19.00;;
18931;SDS011;9598;50.954;3.112;2023-05-07T17:11:15;22.98;;;20.75;;
18931;SDS011;9598;50.954;3.112;2023-05-07T17:16:17;24.55;;;22.20;;
18931;SDS011;9598;50.954;3.112;2023-05-07T17:21:20;25.05;;;22.77;;
18931;SDS011;9598;50.954;3.112;2023-05-07T17:26:23;23.85;;;21.55;;
18931;SDS011;9598;50.954;3.112;2023-05-07T17:31:25;24.63;;;21.85;;
18931;SDS011;9598;50.954;3.112;2023-05-07T17:36:27;25.48;;;22.85;;
18931;SDS011;9598;50.954;3.112;2023-05-07T17:41:31;25.20;;;22.77;;
18931;SDS011;9598;50.954;3.112;2023-05-07T17:46:35;26.13;;;23.55;;
18931;SDS011;9598;50.954;3.112;2023-05-07T17:51:38;25.92;;;23.25;;
18931;SDS011;9598;50.954;3.112;2023-05-07T17:56:41;25.90;;;23.17;;
18931;SDS011;9598;50.954;3.112;2023-05-07T18:01:43;24.13;;;21.80;;
18931;SDS011;9598;50.954;3.112;2023-05-07T18:06:45;26.20;;;22.00;;
18931;SDS011;9598;50.954;3.112;2023-05-07T18:11:49;23.60;;;21.08;;
18931;SDS011;9598;50.954;3.112;2023-05-07T18:16:51;23.92;;;21.38;;
18931;SDS011;9598;50.954;3.112;2023-05-07T18:21:53;25.08;;;22.55;;
18931;SDS011;9598;50.954;3.112;2023-05-07T18:26:58;23.70;;;21.30;;
18931;SDS011;9598;50.954;3.112;2023-05-07T18:32:00;24.75;;;22.25;;
18931;SDS011;9598;50.954;3.112;2023-05-07T18:37:02;25.55;;;22.90;;
18931;SDS011;9598;50.954;3.112;2023-05-07T18:42:06;24.77;;;22.17;;
18931;SDS011;9598;50.954;3.112;2023-05-07T18:47:08;25.73;;;22.50;;
18931;SDS011;9598;50.954;3.112;2023-05-07T18:52:10;22.55;;;20.30;;
18931;SDS011;9598;50.954;3.112;2023-05-07T18:57:13;25.90;;;23.25;;
18931;SDS011;9598;50.954;3.112;2023-05-07T19:02:16;25.35;;;22.65;;
18931;SDS011;9598;50.954;3.112;2023-05-07T19:07:18;25.42;;;22.52;;
18931;SDS011;9598;50.954;3.112;2023-05-07T19:12:22;23.45;;;20.85;;
18931;SDS011;9598;50.954;3.112;2023-05-07T19:17:24;26.20;;;21.70;;
18931;SDS011;9598;50.954;3.112;2023-05-07T19:22:26;23.75;;;21.35;;
18931;SDS011;9598;50.954;3.112;2023-05-07T19:27:29;24.27;;;21.65;;
18931;SDS011;9598;50.954;3.112;2023-05-07T19:32:32;25.45;;;22.83;;
18931;SDS011;9598;50.954;3.112;2023-05-07T19:37:34;22.92;;;20.67;;
18931;SDS011;9598;50.954;3.112;2023-05-07T19:42:37;25.20;;;21.40;;
18931;SDS011;9598;50.954;3.112;2023-05-07T19:47:39;25.92;;;22.08;;
18931;SDS011;9598;50.954;3.112;2023-05-07T19:52:41;23.63;;;21.15;;
18931;SDS011;9598;50.954;3.112;2023-05-07T19:57:45;23.52;;;21.02;;
18931;SDS011;9598;50.954;3.112;2023-05-07T20:02:49;27.90;;;23.98;;
18931;SDS011;9598;50.954;3.112;2023-05-07T20:07:51;27.02;;;23.33;;
18931;SDS011;9598;50.954;3.112;2023-05-07T20:12:54;24.50;;;22.02;;
18931;SDS011;9598;50.954;3.112;2023-05-07T20:17:56;24.55;;;22.15;;
18931;SDS011;9598;50.954;3.112;2023-05-07T20:22:59;23.55;;;21.05;;
18931;SDS011;9598;50.954;3.112;2023-05-07T20:28:02;23.42;;;20.80;;
18931;SDS011;9598;50.954;3.112;2023-05-07T20:33:04;24.70;;;22.08;;
18931;SDS011;9598;50.954;3.112;2023-05-07T20:38:07;29.70;;;23.38;;
18931;SDS011;9598;50.954;3.112;2023-05-07T20:43:10;30.00;;;24.77;;
18931;SDS011;9598;50.954;3.112;2023-05-07T20:48:12;28.13;;;24.70;;
18931;SDS011;9598;50.954;3.112;2023-05-07T20:53:14;30.10;;;26.48;;
18931;SDS011;9598;50.954;3.112;2023-05-07T20:58:18;32.42;;;26.95;;
18931;SDS011;9598;50.954;3.112;2023-05-07T21:03:20;34.88;;;29.17;;
18931;SDS011;9598;50.954;3.112;2023-05-07T21:08:22;33.58;;;29.17;;
18931;SDS011;9598;50.954;3.112;2023-05-07T21:13:26;32.63;;;28.52;;
18931;SDS011;9598;50.954;3.112;2023-05-07T21:18:28;30.05;;;26.85;;
18931;SDS011;9598;50.954;3.112;2023-05-07T21:23:30;33.33;;;27.20;;
18931;SDS011;9598;50.954;3.112;2023-05-07T21:28:33;30.52;;;26.10;;
18931;SDS011;9598;50.954;3.112;2023-05-07T21:33:35;30.75;;;24.73;;
18931;SDS011;9598;50.954;3.112;2023-05-07T21:38:38;31.83;;;25.20;;
18931;SDS011;9598;50.954;3.112;2023-05-07T21:43:42;32.85;;;25.05;;
18931;SDS011;9598;50.954;3.112;2023-05-07T21:48:44;28.42;;;23.77;;
18931;SDS011;9598;50.954;3.112;2023-05-07T21:53:46;27.98;;;24.05;;
18931;SDS011;9598;50.954;3.112;2023-05-07T21:58:49;30.30;;;25.42;;
18931;SDS011;9598;50.954;3.112;2023-05-07T22:03:51;29.60;;;26.27;;
18931;SDS011;9598;50.954;3.112;2023-05-07T22:08:53;31.08;;;25.88;;
18931;SDS011;9598;50.954;3.112;2023-05-07T22:13:57;30.52;;;24.85;;
18931;SDS011;9598;50.954;3.112;2023-05-07T22:18:59;29.08;;;24.38;;
18931;SDS011;9598;50.954;3.112;2023-05-07T22:24:02;28.38;;;23.58;;
18931;SDS011;9598;50.954;3.112;2023-05-07T22:29:07;28.45;;;24.08;;
18931;SDS011;9598;50.954;3.112;2023-05-07T22:34:09;29.02;;;24.77;;
18931;SDS011;9598;50.954;3.112;2023-05-07T22:39:11;32.78;;;25.85;;
18931;SDS011;9598;50.954;3.112;2023-05-07T22:44:15;40.42;;;29.58;;
18931;SDS011;9598;50.954;3.112;2023-05-07T22:49:17;38.33;;;28.60;;
18931;SDS011;9598;50.954;3.112;2023-05-07T22:54:19;39.92;;;29.23;;
18931;SDS011;9598;50.954;3.112;2023-05-07T22:59:23;37.20;;;28.60;;
18931;SDS011;9598;50.954;3.112;2023-05-07T23:04:25;37.88;;;29.35;;
18931;SDS011;9598;50.954;3.112;2023-05-07T23:09:27;39.85;;;29.90;;
18931;SDS011;9598;50.954;3.112;2023-05-07T23:14:30;39.22;;;32.40;;
18931;SDS011;9598;50.954;3.112;2023-05-07T23:19:32;43.17;;;30.75;;
18931;SDS011;9598;50.954;3.112;2023-05-07T23:24:34;42.30;;;30.80;;
18931;SDS011;9598;50.954;3.112;2023-05-07T23:29:38;40.47;;;30.25;;
18931;SDS011;9598;50.954;3.112;2023-05-07T23:34:40;41.65;;;30.80;;
18931;SDS011;9598;50.954;3.112;2023-05-07T23:39:42;45.78;;;32.95;;
18931;SDS011;9598;50.954;3.112;2023-05-07T23:44:46;47.80;;;32.42;;
18931;SDS011;9598;50.954;3.112;2023-05-07T23:49:48;59.80;;;37.47;;
18931;SDS011;9598;50.954;3.112;2023-05-07T23:54:51;56.88;;;36.70;;
18931;SDS011;9598;50.954;3.112;2023-05-07T23:59:54;59.92;;;38.67;;
